Time;durP1;ratioP1;P1;durP2;ratioP2;P2;SDS_P1;SDS_P2;PMS_P1;PMS_P2;Temp;Humidity;BMP_temperature;BMP_pressure;BME280_temperature;BME280_humidity;BME280_pressure;Samples;Min_cycle;Max_cycle;Signal;HPM_P1;HPM_P2
2023/07/12 00:00:28;;;;;;;4.50;2.45;;;;;;;29.71;42.71;98824.13;2075882;28;20160;-50
2023/07/12 00:01:29;;;;;;;4.05;2.90;;;;;;;29.75;42.49;98808.00;2078251;28;20049;-53
2023/07/12 00:02:31;;;;;;;4.18;2.60;;;;;;;29.74;42.32;98814.56;2078712;28;20118;-51
2023/07/12 00:03:32;;;;;;;4.88;2.42;;;;;;;29.72;42.08;98814.81;2080608;28;20145;-53
2023/07/12 00:04:34;;;;;;;5.63;2.83;;;;;;;29.71;42.64;98812.38;2080525;28;20048;-50
2023/07/12 00:05:35;;;;;;;4.93;3.35;;;;;;;29.70;42.53;98813.44;2071058;28;20076;-52
2023/07/12 00:06:39;;;;;;;5.68;2.80;;;;;;;29.71;42.38;98801.44;2078953;28;20057;-50
2023/07/12 00:07:40;;;;;;;4.57;2.30;;;;;;;29.71;42.10;98796.78;2076536;28;20052;-53
2023/07/12 00:08:43;;;;;;;9.27;3.17;;;;;;;29.70;42.36;98797.06;2079513;28;20418;-51
2023/07/12 00:09:45;;;;;;;5.18;2.78;;;;;;;29.68;42.47;98788.31;2077590;28;20846;-49
2023/07/12 00:10:48;;;;;;;3.17;2.20;;;;;;;29.67;42.20;98792.97;2078152;28;20076;-52
2023/07/12 00:11:48;;;;;;;6.32;2.95;;;;;;;29.64;42.47;98792.69;2074533;28;20054;-51
2023/07/12 00:12:50;;;;;;;5.43;2.88;;;;;;;29.67;42.14;98803.06;2080893;28;20049;-53
2023/07/12 00:13:55;;;;;;;5.88;2.95;;;;;;;29.66;42.40;98798.69;2078813;28;20052;-55
2023/07/12 00:14:55;;;;;;;5.32;2.72;;;;;;;29.66;41.98;98801.44;2079526;28;20072;-54
2023/07/12 00:15:57;;;;;;;4.95;2.70;;;;;;;29.69;41.93;98815.38;2080330;28;20052;-54
2023/07/12 00:16:58;;;;;;;3.95;2.65;;;;;;;29.68;41.86;98813.75;2080932;28;20076;-55
2023/07/12 00:18:00;;;;;;;4.38;2.28;;;;;;;29.69;41.61;98812.63;2077391;28;20042;-54
2023/07/12 00:19:02;;;;;;;2.97;2.28;;;;;;;29.69;41.76;98811.81;2079133;28;20503;-53
2023/07/12 00:20:04;;;;;;;4.15;2.85;;;;;;;29.67;41.88;98823.03;2077049;28;20053;-53
2023/07/12 00:21:06;;;;;;;5.07;2.65;;;;;;;29.64;41.86;98820.00;2080679;28;20423;-54
2023/07/12 00:22:10;;;;;;;7.68;2.78;;;;;;;29.66;41.87;98821.38;2079899;28;20128;-52
2023/07/12 00:23:12;;;;;;;5.43;2.53;;;;;;;29.64;41.60;98818.09;2074023;28;20147;-52
2023/07/12 00:24:16;;;;;;;3.95;2.42;;;;;;;29.62;41.61;98823.81;2079179;28;20045;-53
2023/07/12 00:25:18;;;;;;;3.90;2.30;;;;;;;29.64;41.94;98823.56;2077803;28;20053;-53
2023/07/12 00:26:26;;;;;;;6.82;2.67;;;;;;;29.58;42.09;98833.63;2078939;28;20053;-53
2023/07/12 00:27:27;;;;;;;5.50;2.45;;;;;;;29.58;41.92;98830.91;2081048;28;20049;-53
2023/07/12 00:28:29;;;;;;;4.78;2.38;;;;;;;29.56;42.29;98830.38;2081687;28;20095;-53
2023/07/12 00:29:29;;;;;;;4.15;2.30;;;;;;;29.54;41.98;98832.56;2080296;28;20048;-54
2023/07/12 00:30:36;;;;;;;5.30;2.97;;;;;;;29.57;41.64;98832.00;2079014;28;20509;-54
2023/07/12 00:31:38;;;;;;;5.97;2.72;;;;;;;29.55;41.92;98834.19;2080598;28;20095;-52
2023/07/12 00:32:40;;;;;;;3.70;2.65;;;;;;;29.55;41.71;98830.63;2079821;28;20068;-55
2023/07/12 00:33:41;;;;;;;4.03;2.60;;;;;;;29.55;41.74;98836.91;2081060;28;20045;-53
2023/07/12 00:34:42;;;;;;;4.35;1.80;;;;;;;29.53;42.02;98832.81;2081742;28;20080;-52
2023/07/12 00:35:45;;;;;;;3.53;2.20;;;;;;;29.52;41.73;98836.66;2081618;28;20045;-54
2023/07/12 00:36:46;;;;;;;2.70;2.20;;;;;;;29.52;41.32;98834.72;2081945;28;20044;-60
2023/07/12 00:37:48;;;;;;;4.95;2.63;;;;;;;29.52;41.60;98831.19;2080972;28;20083;-51
2023/07/12 00:38:49;;;;;;;5.45;2.38;;;;;;;29.53;41.60;98830.94;2081325;28;20726;-49
2023/07/12 00:39:52;;;;;;;2.85;2.38;;;;;;;29.53;41.44;98833.66;2079461;28;20049;-51
2023/07/12 00:41:17;;;;;;;5.88;2.20;;;;;;;29.49;41.52;98832.53;2076926;28;20060;-56
2023/07/12 00:42:23;;;;;;;3.03;2.42;;;;;;;29.48;41.76;98832.84;2078583;28;20103;-59
2023/07/12 00:43:30;;;;;;;3.22;2.35;;;;;;;29.45;41.62;98839.66;2081064;28;20051;-54
2023/07/12 00:44:35;;;;;;;2.85;2.50;;;;;;;29.48;41.73;98836.38;2079351;28;20037;-55
2023/07/12 00:45:38;;;;;;;4.80;2.17;;;;;;;29.46;41.54;98838.56;2078347;28;20052;-54
2023/07/12 00:46:44;;;;;;;3.55;2.17;;;;;;;29.45;41.83;98833.34;2079736;28;20049;-55
2023/07/12 00:47:49;;;;;;;3.85;2.40;;;;;;;29.44;41.94;98832.53;2078941;28;20119;-52
2023/07/12 00:48:50;;;;;;;3.80;2.45;;;;;;;29.45;41.37;98842.38;2078103;28;20808;-53
2023/07/12 00:49:53;;;;;;;2.78;1.98;;;;;;;29.44;41.26;98838.00;2080743;28;20052;-55
2023/07/12 00:50:54;;;;;;;2.42;2.03;;;;;;;29.45;41.41;98828.72;2077685;28;20094;-56
2023/07/12 00:52:02;;;;;;;5.65;2.70;;;;;;;29.46;41.60;98833.09;2080731;28;20115;-56
2023/07/12 00:53:02;;;;;;;5.55;2.85;;;;;;;29.44;41.31;98828.97;2080323;28;20048;-55
2023/07/12 00:54:11;;;;;;;4.68;2.38;;;;;;;29.45;41.21;98838.81;2079862;28;20045;-55
2023/07/12 00:56:00;;;;;;;3.67;2.03;;;;;;;29.33;41.74;98830.88;2076743;28;20087;-54
2023/07/12 00:57:03;;;;;;;3.90;2.10;;;;;;;29.36;41.62;98830.31;2078997;28;20457;-54
2023/07/12 00:58:05;;;;;;;3.92;2.90;;;;;;;29.38;41.67;98823.50;2080815;28;20092;-50
2023/07/12 00:59:12;;;;;;;3.78;2.25;;;;;;;29.42;41.63;98817.50;2071363;28;20061;-51
2023/07/12 01:00:13;;;;;;;2.45;2.05;;;;;;;29.38;41.03;98820.78;2077311;28;20057;-55
2023/07/12 01:01:16;;;;;;;4.03;2.05;;;;;;;29.40;41.49;98825.97;2079375;28;20095;-55
2023/07/12 01:02:18;;;;;;;8.50;2.60;;;;;;;29.40;41.47;98824.06;2077861;28;20056;-55
2023/07/12 01:03:22;;;;;;;2.88;2.15;;;;;;;29.40;41.24;98825.97;2080447;28;20056;-54
2023/07/12 01:04:26;;;;;;;5.35;2.90;;;;;;;29.38;41.33;98833.63;2078457;28;20504;-53
2023/07/12 01:05:27;;;;;;;3.75;1.95;;;;;;;29.36;41.02;98838.53;2077300;28;20072;-53
2023/07/12 01:06:29;;;;;;;3.20;2.33;;;;;;;29.35;41.14;98837.72;2079028;28;20052;-54
2023/07/12 01:07:31;;;;;;;3.35;2.05;;;;;;;29.35;41.73;98832.25;2078567;28;20199;-54
2023/07/12 01:08:33;;;;;;;3.00;2.17;;;;;;;29.35;41.34;98829.50;2079851;28;20063;-53
2023/07/12 01:09:34;;;;;;;6.32;3.20;;;;;;;29.36;40.92;98824.84;2078823;28;20069;-58
2023/07/12 01:10:38;;;;;;;3.72;2.10;;;;;;;29.35;41.54;98810.38;2079735;28;20053;-58
2023/07/12 01:11:42;;;;;;;3.15;2.30;;;;;;;29.38;41.04;98822.69;2079275;28;20122;-52
2023/07/12 01:12:43;;;;;;;5.07;2.40;;;;;;;29.37;41.38;98818.31;2077241;28;20063;-50
2023/07/12 01:13:46;;;;;;;4.45;2.42;;;;;;;29.33;40.86;98819.94;2078097;28;20080;-50
2023/07/12 01:14:47;;;;;;;3.72;2.15;;;;;;;29.35;41.04;98823.22;2067947;28;20056;-54
2023/07/12 01:15:49;;;;;;;3.85;2.85;;;;;;;29.35;40.91;98823.22;2070574;28;20503;-52
2023/07/12 01:16:56;;;;;;;7.22;2.65;;;;;;;29.37;41.13;98821.06;2072498;28;20045;-50
2023/07/12 01:17:58;;;;;;;3.63;2.05;;;;;;;29.34;41.17;98822.41;2055377;28;20057;-52
2023/07/12 01:18:59;;;;;;;3.92;3.03;;;;;;;29.31;41.26;98811.19;2068249;28;20396;-52
2023/07/12 01:20:01;;;;;;;5.00;2.75;;;;;;;29.31;40.95;98803.00;2069343;28;20096;-49
2023/07/12 01:21:09;;;;;;;4.25;2.13;;;;;;;29.31;40.99;98797.53;2072431;28;20408;-52
2023/07/12 01:22:11;;;;;;;4.18;2.47;;;;;;;29.30;40.87;98793.97;2069457;28;20798;-53
2023/07/12 01:23:12;;;;;;;5.20;2.45;;;;;;;29.29;41.08;98781.41;2072573;28;20053;-55
2023/07/12 01:24:15;;;;;;;2.25;1.90;;;;;;;29.30;41.06;98782.22;2074454;28;20052;-51
2023/07/12 01:25:16;;;;;;;3.28;2.30;;;;;;;29.31;41.54;98778.41;2080760;28;20053;-56
2023/07/12 01:26:24;;;;;;;4.35;2.50;;;;;;;29.27;41.02;98780.03;2079859;28;20053;-53
2023/07/12 01:27:27;;;;;;;3.20;2.72;;;;;;;29.25;41.21;98774.03;2080014;28;20506;-53
2023/07/12 01:28:28;;;;;;;3.40;2.00;;;;;;;29.27;40.93;98769.13;2077682;28;20054;-54
2023/07/12 01:29:30;;;;;;;2.95;2.35;;;;;;;29.25;41.06;98768.56;2079858;28;20145;-56
2023/07/12 01:30:32;;;;;;;3.63;2.35;;;;;;;29.28;41.03;98777.06;2082659;28;20064;-50
2023/07/12 01:31:34;;;;;;;3.58;2.10;;;;;;;29.28;40.70;98785.25;2080270;28;20091;-57
2023/07/12 01:32:38;;;;;;;2.67;1.92;;;;;;;29.28;40.54;98789.88;2081202;28;20579;-56
2023/07/12 01:33:39;;;;;;;4.38;2.35;;;;;;;29.24;40.94;98796.97;2077831;28;20660;-51
2023/07/12 01:34:41;;;;;;;2.70;1.88;;;;;;;29.26;40.95;98800.28;2081514;28;20044;-50
2023/07/12 01:35:42;;;;;;;4.40;2.55;;;;;;;29.25;40.70;98795.88;2081745;28;20423;-50
2023/07/12 01:36:46;;;;;;;3.05;2.60;;;;;;;29.24;41.69;98786.06;2080070;28;20087;-52
2023/07/12 01:37:47;;;;;;;4.40;2.38;;;;;;;29.24;40.55;98789.59;2080669;28;20393;-55
2023/07/12 01:38:49;;;;;;;3.17;2.08;;;;;;;29.23;40.74;98781.69;2078399;28;20471;-54
2023/07/12 01:39:50;;;;;;;2.72;2.13;;;;;;;29.25;40.73;98784.94;2082217;28;20056;-51
2023/07/12 01:40:52;;;;;;;3.88;2.30;;;;;;;29.21;40.86;98794.78;2078347;28;20053;-51
2023/07/12 01:41:53;;;;;;;2.58;1.90;;;;;;;29.21;40.75;98792.06;2079503;28;20076;-52
2023/07/12 01:42:55;;;;;;;3.45;1.98;;;;;;;29.23;40.46;98798.91;2083662;28;20083;-53
2023/07/12 01:43:57;;;;;;;2.70;1.88;;;;;;;29.25;40.39;98795.88;2080993;28;20060;-55
2023/07/12 01:44:59;;;;;;;2.85;2.10;;;;;;;29.23;40.50;98798.09;2079377;28;20703;-54
2023/07/12 01:45:59;;;;;;;4.25;2.30;;;;;;;29.21;40.96;98806.53;2079970;28;20132;-54
2023/07/12 01:47:02;;;;;;;2.72;1.80;;;;;;;29.24;40.94;98796.97;2081807;28;20633;-49
2023/07/12 01:48:03;;;;;;;3.55;2.03;;;;;;;29.22;40.67;98790.97;2074029;28;20076;-51
2023/07/12 01:49:05;;;;;;;3.10;2.25;;;;;;;29.19;40.98;98781.38;2077869;28;20047;-53
2023/07/12 01:50:07;;;;;;;2.25;1.63;;;;;;;29.22;40.53;98777.31;2082401;28;20087;-52
2023/07/12 01:51:09;;;;;;;3.53;2.70;;;;;;;29.16;40.35;98769.09;2080895;28;20524;-53
2023/07/12 01:52:12;;;;;;;3.22;2.05;;;;;;;29.18;40.42;98753.25;2079804;28;20608;-53
2023/07/12 01:53:14;;;;;;;3.70;2.03;;;;;;;29.19;40.43;98748.63;2077291;28;20535;-50
2023/07/12 01:54:14;;;;;;;3.15;1.83;;;;;;;29.17;40.46;98728.97;2079485;28;20053;-50
2023/07/12 01:55:16;;;;;;;5.13;2.50;;;;;;;29.17;40.65;98731.69;2082216;28;20064;-54
2023/07/12 01:56:17;;;;;;;3.15;2.28;;;;;;;29.16;40.47;98728.13;2081886;28;20060;-55
2023/07/12 01:57:19;;;;;;;3.30;2.35;;;;;;;29.17;40.30;98731.69;2080497;28;20049;-54
2023/07/12 01:58:20;;;;;;;5.25;2.13;;;;;;;29.17;40.53;98748.91;2080042;28;20053;-52
2023/07/12 01:59:22;;;;;;;2.42;1.90;;;;;;;29.18;40.76;98750.53;2081065;28;20476;-55
2023/07/12 02:00:23;;;;;;;2.38;1.65;;;;;;;29.15;40.43;98758.44;2079543;28;21404;-53
2023/07/12 02:01:25;;;;;;;2.05;1.67;;;;;;;29.16;40.72;98749.97;2082108;28;20049;-51
2023/07/12 02:02:28;;;;;;;4.05;2.85;;;;;;;29.14;40.51;98760.38;2080503;28;20037;-55
2023/07/12 02:03:30;;;;;;;4.15;2.00;;;;;;;29.16;40.82;98762.81;2082418;28;20392;-54
2023/07/12 02:04:31;;;;;;;4.55;3.15;;;;;;;29.14;40.48;98767.72;2083833;28;20094;-52
2023/07/12 02:05:33;;;;;;;3.50;1.95;;;;;;;29.12;40.45;98759.81;2076019;28;20537;-52
2023/07/12 02:06:34;;;;;;;3.55;2.53;;;;;;;29.14;40.71;98781.38;2076985;28;20326;-50
2023/07/12 02:07:38;;;;;;;3.15;2.10;;;;;;;29.12;40.87;98786.31;2078675;28;20507;-53
2023/07/12 02:08:38;;;;;;;3.25;2.25;;;;;;;29.12;40.77;98797.22;2080408;28;20049;-59
2023/07/12 02:09:42;;;;;;;2.95;2.63;;;;;;;29.12;40.32;98806.25;2078323;28;20474;-52
2023/07/12 02:10:42;;;;;;;4.28;2.53;;;;;;;29.11;40.99;98807.34;2072279;28;20049;-55
2023/07/12 02:11:44;;;;;;;1.88;1.55;;;;;;;29.09;40.46;98809.50;2079308;28;20049;-52
2023/07/12 02:12:46;;;;;;;2.97;1.80;;;;;;;29.11;40.29;98812.81;2080492;28;20101;-55
2023/07/12 02:13:48;;;;;;;3.33;2.28;;;;;;;29.08;40.36;98810.59;2077724;28;20107;-54
2023/07/12 02:14:48;;;;;;;6.88;2.30;;;;;;;29.11;40.59;98812.81;2073287;28;20050;-52
2023/07/12 02:15:51;;;;;;;4.50;2.33;;;;;;;29.11;40.32;98817.41;2076945;28;20135;-54
2023/07/12 02:16:51;;;;;;;5.43;2.65;;;;;;;29.09;40.22;98814.16;2080402;28;20072;-54
2023/07/12 02:17:53;;;;;;;2.85;2.03;;;;;;;29.10;40.27;98816.59;2080178;28;20064;-54
2023/07/12 02:18:54;;;;;;;4.03;2.17;;;;;;;29.09;40.13;98809.50;2077945;28;20057;-53
2023/07/12 02:19:55;;;;;;;2.67;2.00;;;;;;;29.11;39.95;98807.34;2079360;28;21207;-54
2023/07/12 02:20:57;;;;;;;2.67;2.10;;;;;;;29.10;40.47;98810.31;2081475;28;20534;-54
2023/07/12 02:21:58;;;;;;;2.90;1.95;;;;;;;29.10;40.49;98813.88;2077328;28;20079;-51
2023/07/12 02:23:01;;;;;;;3.65;2.10;;;;;;;29.10;40.22;98804.88;2079062;28;21128;-52
2023/07/12 02:24:02;;;;;;;3.53;2.17;;;;;;;29.08;40.25;98807.84;2079855;28;20075;-53
2023/07/12 02:25:05;;;;;;;2.58;2.08;;;;;;;29.09;39.82;98792.31;2078367;28;20075;-50
2023/07/12 02:26:06;;;;;;;6.70;2.50;;;;;;;29.06;40.78;98790.94;2081690;28;20418;-53
2023/07/12 02:27:08;;;;;;;2.30;1.70;;;;;;;29.09;40.20;98790.41;2071846;28;20049;-55
2023/07/12 02:28:09;;;;;;;2.88;1.80;;;;;;;29.07;40.04;98795.28;2078003;28;20080;-54
2023/07/12 02:29:11;;;;;;;2.80;2.40;;;;;;;29.10;40.13;98794.75;2078073;28;20056;-53
2023/07/12 02:30:14;;;;;;;6.00;2.17;;;;;;;29.10;40.17;98785.75;2080039;28;20048;-49
2023/07/12 02:31:19;;;;;;;5.22;2.70;;;;;;;29.05;40.43;98789.28;2080960;28;20535;-51
2023/07/12 02:32:20;;;;;;;2.83;1.80;;;;;;;29.06;40.55;98787.34;2077657;28;20594;-52
2023/07/12 02:33:22;;;;;;;2.70;2.20;;;;;;;29.04;40.03;98782.19;2078278;28;20061;-52
2023/07/12 02:34:23;;;;;;;6.88;1.88;;;;;;;29.06;40.10;98777.28;2079920;28;20057;-51
2023/07/12 02:35:29;;;;;;;2.72;2.10;;;;;;;29.07;39.96;98762.53;2091230;22;20149;-54
2023/07/12 02:36:30;;;;;;;3.42;1.98;;;;;;;29.06;39.89;98746.41;2079740;28;20053;-53
2023/07/12 02:37:32;;;;;;;4.60;2.17;;;;;;;29.03;39.86;98730.53;2078294;28;20076;-52
2023/07/12 02:38:34;;;;;;;5.80;2.20;;;;;;;29.03;40.02;98728.66;2079046;28;20044;-56
2023/07/12 02:39:37;;;;;;;3.22;1.60;;;;;;;29.02;40.19;98716.06;2079302;28;20052;-55
2023/07/12 02:40:37;;;;;;;2.03;1.80;;;;;;;29.01;40.08;98708.97;2078436;28;20057;-59
2023/07/12 02:41:39;;;;;;;2.25;1.83;;;;;;;29.02;40.17;98710.59;2077218;28;20057;-59
2023/07/12 02:42:41;;;;;;;1.92;1.45;;;;;;;29.03;39.80;98722.34;2076512;28;20813;-50
2023/07/12 02:43:42;;;;;;;3.28;1.95;;;;;;;29.02;39.84;98729.72;2071742;28;20052;-52
2023/07/12 02:44:43;;;;;;;3.30;2.40;;;;;;;29.03;40.00;98744.19;2075517;28;20143;-58
2023/07/12 02:45:47;;;;;;;3.65;2.08;;;;;;;29.03;39.63;98760.56;2075688;28;20056;-55
2023/07/12 02:46:49;;;;;;;2.28;1.98;;;;;;;29.02;39.62;98765.22;2078113;28;20090;-54
2023/07/12 02:47:50;;;;;;;2.33;2.05;;;;;;;29.02;39.67;98773.41;2077324;28;20499;-54
2023/07/12 02:48:52;;;;;;;3.08;1.85;;;;;;;29.02;39.94;98770.66;2079299;28;20041;-54
2023/07/12 02:49:52;;;;;;;3.75;2.42;;;;;;;29.04;40.06;98773.19;2078647;28;20507;-54
2023/07/12 02:50:54;;;;;;;1.75;1.55;;;;;;;29.01;39.89;98766.31;2081556;28;20041;-51
2023/07/12 02:51:55;;;;;;;4.13;2.10;;;;;;;29.01;39.51;98752.66;2079458;28;20052;-54
2023/07/12 02:52:57;;;;;;;3.90;2.38;;;;;;;29.03;39.62;98749.63;2077993;28;20053;-54
2023/07/12 02:53:59;;;;;;;4.35;2.25;;;;;;;29.04;39.71;98754.06;2078961;28;20529;-55
2023/07/12 02:55:00;;;;;;;2.28;2.08;;;;;;;29.02;40.28;98781.59;2077835;28;22197;-55
2023/07/12 02:56:03;;;;;;;3.45;1.95;;;;;;;28.99;39.96;98786.78;2077008;28;20167;-55
2023/07/12 02:57:04;;;;;;;5.07;2.25;;;;;;;28.97;39.69;98803.41;2080385;28;20080;-56
2023/07/12 02:58:06;;;;;;;3.95;2.15;;;;;;;28.97;39.84;98800.69;2080111;28;20045;-53
2023/07/12 02:59:07;;;;;;;2.92;2.10;;;;;;;28.99;39.73;98779.41;2079234;28;20060;-52
2023/07/12 03:00:10;;;;;;;3.25;1.80;;;;;;;29.00;39.33;98758.38;2079411;28;20607;-54
2023/07/12 03:01:11;;;;;;;4.28;2.13;;;;;;;28.96;40.20;98744.44;2081354;28;20138;-53
2023/07/12 03:02:13;;;;;;;4.10;2.47;;;;;;;28.95;40.28;98738.16;2071466;28;20099;-53
2023/07/12 03:03:15;;;;;;;3.63;1.77;;;;;;;28.94;39.78;98741.16;2081846;28;20591;-54
2023/07/12 03:04:15;;;;;;;3.15;1.90;;;;;;;28.96;39.86;98749.91;2080126;28;20053;-52
2023/07/12 03:05:17;;;;;;;2.00;1.70;;;;;;;28.92;40.00;98755.09;2080522;28;20057;-54
2023/07/12 03:06:19;;;;;;;2.78;1.90;;;;;;;28.92;39.61;98752.38;2081137;28;20057;-53
2023/07/12 03:07:21;;;;;;;7.15;2.08;;;;;;;28.98;39.54;98760.56;2081638;28;20056;-53
2023/07/12 03:08:21;;;;;;;3.45;2.10;;;;;;;28.94;39.70;98766.53;2079388;28;20061;-53
2023/07/12 03:09:24;;;;;;;3.38;1.98;;;;;;;28.96;39.72;98775.28;2080032;28;20059;-52
2023/07/12 03:10:25;;;;;;;2.22;2.03;;;;;;;28.91;39.78;98786.19;2082078;28;20415;-54
2023/07/12 03:11:26;;;;;;;2.58;1.60;;;;;;;28.94;39.56;98798.50;2080169;28;20044;-51
2023/07/12 03:12:28;;;;;;;2.63;1.70;;;;;;;28.95;39.61;98816.53;2086978;28;20043;-53
2023/07/12 03:13:29;;;;;;;2.47;1.75;;;;;;;28.93;39.64;98821.44;2080123;28;20522;-53
2023/07/12 03:14:31;;;;;;;3.42;1.52;;;;;;;28.91;39.68;98823.59;2080138;28;20045;-55
2023/07/12 03:15:36;;;;;;;2.97;1.90;;;;;;;28.93;39.79;98833.19;2078898;28;20057;-52
2023/07/12 03:16:38;;;;;;;3.03;2.08;;;;;;;28.92;40.23;98836.19;2076729;28;20095;-54
2023/07/12 03:17:39;;;;;;;2.97;1.92;;;;;;;28.90;39.90;98841.09;2083207;28;20537;-50
2023/07/12 03:18:41;;;;;;;3.20;1.73;;;;;;;28.89;39.55;98858.53;2070489;28;20144;-54
2023/07/12 03:19:42;;;;;;;2.90;2.35;;;;;;;28.89;40.05;98853.06;2083380;28;20060;-52
2023/07/12 03:20:44;;;;;;;2.60;1.83;;;;;;;28.91;39.68;98845.44;2079144;28;20059;-51
2023/07/12 03:21:46;;;;;;;2.10;1.60;;;;;;;28.90;39.59;98821.97;2081430;28;20533;-52
2023/07/12 03:22:48;;;;;;;2.67;2.17;;;;;;;28.89;39.75;98809.38;2076351;28;20499;-50
2023/07/12 03:23:49;;;;;;;3.22;2.40;;;;;;;28.86;39.60;98802.59;2082067;28;20515;-52
2023/07/12 03:24:52;;;;;;;2.80;1.70;;;;;;;28.86;40.02;98794.41;2078168;28;20053;-50
2023/07/12 03:25:53;;;;;;;3.58;1.85;;;;;;;28.86;39.68;98777.16;2079888;28;20052;-54
2023/07/12 03:26:55;;;;;;;2.08;1.70;;;;;;;28.85;39.19;98762.72;2082595;28;20144;-53
2023/07/12 03:27:56;;;;;;;2.53;1.80;;;;;;;28.86;39.66;98745.25;2079800;28;20045;-53
2023/07/12 03:28:58;;;;;;;2.33;1.85;;;;;;;28.87;39.56;98746.88;2080725;28;20048;-55
2023/07/12 03:29:59;;;;;;;1.88;1.65;;;;;;;28.87;39.33;98740.63;2080352;28;20142;-53
2023/07/12 03:31:02;;;;;;;2.10;1.90;;;;;;;28.87;39.42;98752.34;2081034;28;20056;-55
2023/07/12 03:32:05;;;;;;;2.20;1.63;;;;;;;28.87;40.16;98762.44;2080216;28;20494;-54
2023/07/12 03:33:07;;;;;;;2.72;1.95;;;;;;;28.87;39.20;98774.19;2082136;28;20071;-52
2023/07/12 03:34:08;;;;;;;4.15;2.40;;;;;;;28.85;39.90;98768.16;2079216;28;20058;-50
2023/07/12 03:35:09;;;;;;;3.30;1.83;;;;;;;28.87;39.54;98770.63;2081552;28;20132;-48
2023/07/12 03:36:11;;;;;;;2.38;1.85;;;;;;;28.86;39.78;98774.44;2070419;28;20057;-58
2023/07/12 03:37:12;;;;;;;2.05;1.55;;;;;;;28.86;39.40;98777.16;2082265;28;20049;-55
2023/07/12 03:38:14;;;;;;;2.53;1.88;;;;;;;28.83;39.92;98774.97;2076691;28;20067;-55
2023/07/12 03:39:15;;;;;;;4.15;2.78;;;;;;;28.82;39.86;98779.63;2079901;28;20079;-50
2023/07/12 03:40:18;;;;;;;3.38;1.65;;;;;;;28.85;39.86;98781.00;2081013;28;20155;-51
2023/07/12 03:41:20;;;;;;;3.97;1.85;;;;;;;28.83;39.84;98783.16;2081730;28;20063;-52
2023/07/12 03:42:22;;;;;;;3.55;1.98;;;;;;;28.81;39.66;98791.66;2078898;28;20063;-51
2023/07/12 03:43:23;;;;;;;3.67;2.00;;;;;;;28.83;39.51;98774.97;2082397;28;20423;-54
2023/07/12 03:44:25;;;;;;;2.55;1.55;;;;;;;28.81;39.30;98774.44;2079126;28;20045;-52
2023/07/12 03:45:26;;;;;;;2.95;2.25;;;;;;;28.80;40.07;98770.88;2079811;28;20049;-50
2023/07/12 03:46:28;;;;;;;3.20;2.00;;;;;;;28.79;40.21;98773.88;2079160;28;20100;-53
2023/07/12 03:47:29;;;;;;;2.13;1.75;;;;;;;28.78;39.59;98759.44;2079228;28;20053;-52
2023/07/12 03:48:31;;;;;;;3.58;1.70;;;;;;;28.81;39.42;98766.25;2080331;28;20061;-54
2023/07/12 03:49:32;;;;;;;3.08;1.92;;;;;;;28.82;39.14;98760.50;2079895;28;20052;-55
2023/07/12 03:50:34;;;;;;;2.88;1.83;;;;;;;28.82;39.55;98765.16;2079623;28;20166;-55
2023/07/12 03:51:35;;;;;;;2.45;2.08;;;;;;;28.80;39.57;98770.88;2079772;28;20053;-52
2023/07/12 03:52:37;;;;;;;3.22;2.13;;;;;;;28.81;39.01;98769.00;2061860;28;20775;-50
2023/07/12 03:53:38;;;;;;;4.45;2.88;;;;;;;28.81;39.12;98766.25;2078301;28;20128;-53
2023/07/12 03:54:41;;;;;;;2.53;1.90;;;;;;;28.79;39.37;98766.50;2083926;28;20049;-51
2023/07/12 03:55:45;;;;;;;2.17;1.90;;;;;;;28.81;39.27;98763.53;2080111;28;20049;-55
2023/07/12 03:56:47;;;;;;;2.70;1.95;;;;;;;28.80;40.33;98765.41;2079902;28;20105;-58
2023/07/12 03:57:47;;;;;;;4.00;2.03;;;;;;;28.81;39.76;98752.59;2082664;28;20503;-52
2023/07/12 03:58:50;;;;;;;3.65;1.67;;;;;;;28.83;39.25;98742.22;2079958;28;20092;-52
2023/07/12 03:59:51;;;;;;;1.70;1.60;;;;;;;28.79;38.92;98732.94;2078943;28;20459;-50
2023/07/12 04:00:52;;;;;;;3.05;2.08;;;;;;;28.77;39.76;98724.19;2080939;28;20049;-50
2023/07/12 04:01:53;;;;;;;2.00;1.83;;;;;;;28.78;39.49;98726.66;2081756;28;20779;-59
2023/07/12 04:02:54;;;;;;;3.15;2.00;;;;;;;28.79;39.97;98730.22;2084421;28;20055;-54
2023/07/12 04:03:56;;;;;;;2.78;1.67;;;;;;;28.78;39.24;98736.75;2082991;28;20051;-54
2023/07/12 04:04:57;;;;;;;4.28;1.73;;;;;;;28.78;39.22;98742.19;2082449;28;20056;-51
2023/07/12 04:05:58;;;;;;;2.83;1.85;;;;;;;28.77;39.54;98740.56;2081368;28;20128;-56
2023/07/12 04:07:00;;;;;;;4.78;1.70;;;;;;;28.80;39.63;98745.50;2081358;28;20465;-52
2023/07/12 04:08:02;;;;;;;2.40;2.13;;;;;;;28.82;39.35;98754.25;2082872;28;20045;-56
2023/07/12 04:09:04;;;;;;;2.80;1.63;;;;;;;28.85;39.31;98757.25;2080655;28;20175;-51
2023/07/12 04:10:06;;;;;;;2.03;1.77;;;;;;;28.89;39.08;98757.53;2077702;28;20085;-51
2023/07/12 04:11:25;;;;;;;2.33;1.70;;;;;;;28.89;39.81;98752.06;2072832;28;20064;-51
2023/07/12 04:12:25;;;;;;;3.90;1.85;;;;;;;28.90;39.50;98751.81;2080960;28;20623;-53
2023/07/12 04:13:28;;;;;;;4.10;1.52;;;;;;;28.93;39.58;98761.38;2081622;28;20094;-55
2023/07/12 04:14:28;;;;;;;1.83;1.60;;;;;;;28.98;40.09;98777.78;2079936;28;20762;-52
2023/07/12 04:15:30;;;;;;;2.30;1.98;;;;;;;28.98;39.91;98772.31;2081368;28;20102;-55
2023/07/12 04:16:31;;;;;;;1.92;1.45;;;;;;;29.01;40.00;98785.44;2081344;28;20056;-54
2023/07/12 04:17:33;;;;;;;3.53;1.55;;;;;;;29.02;40.01;98775.31;2079756;28;20507;-54
2023/07/12 04:18:34;;;;;;;1.92;1.70;;;;;;;29.02;40.59;98781.59;2078372;28;20060;-54
2023/07/12 04:19:36;;;;;;;2.17;1.50;;;;;;;29.02;41.22;98770.66;2077435;28;20669;-56
2023/07/12 04:20:38;;;;;;;2.47;2.10;;;;;;;29.02;40.96;98764.41;2080497;28;20049;-50
2023/07/12 04:21:40;;;;;;;2.38;1.63;;;;;;;29.04;40.79;98773.19;2079131;28;20054;-52
2023/07/12 04:22:41;;;;;;;2.75;1.80;;;;;;;29.05;40.81;98778.34;2081203;28;20049;-51
2023/07/12 04:23:42;;;;;;;2.50;1.70;;;;;;;29.07;40.82;98778.09;2078286;28;20422;-53
2023/07/12 04:24:48;;;;;;;2.13;1.60;;;;;;;29.07;41.01;98776.19;2080117;28;20044;-55
2023/07/12 04:25:58;;;;;;;2.72;1.70;;;;;;;29.05;41.33;98778.34;2079830;28;20045;-49
2023/07/12 04:27:00;;;;;;;2.58;2.10;;;;;;;29.06;40.99;98782.75;2072992;28;20053;-56
2023/07/12 04:28:01;;;;;;;2.58;1.40;;;;;;;29.07;41.23;98789.84;2079724;28;20052;-51
2023/07/12 04:29:03;;;;;;;3.70;1.85;;;;;;;29.07;41.16;98784.38;2077134;28;20140;-52
2023/07/12 04:30:06;;;;;;;2.42;1.75;;;;;;;29.11;41.46;98788.22;2079258;28;20053;-48
2023/07/12 04:31:11;;;;;;;2.15;1.80;;;;;;;29.11;41.66;98790.97;2083000;28;20095;-51
2023/07/12 04:32:12;;;;;;;2.92;1.50;;;;;;;29.12;41.60;98795.31;2082170;28;20075;-51
2023/07/12 04:33:14;;;;;;;2.67;1.40;;;;;;;29.12;41.69;98798.03;2080029;28;20052;-54
2023/07/12 04:34:15;;;;;;;2.25;1.88;;;;;;;29.15;41.60;98799.41;2078428;28;20057;-52
2023/07/12 04:35:17;;;;;;;2.35;1.70;;;;;;;29.16;41.49;98801.06;2078983;28;20128;-55
2023/07/12 04:36:18;;;;;;;1.50;1.40;;;;;;;29.15;41.65;98808.44;2080032;28;20068;-56
2023/07/12 04:37:20;;;;;;;2.92;2.15;;;;;;;29.14;41.73;98804.06;2079008;28;20057;-54
2023/07/12 04:38:21;;;;;;;1.83;1.40;;;;;;;29.16;41.94;98804.59;2079878;28;20502;-51
2023/07/12 04:39:22;;;;;;;1.90;1.60;;;;;;;29.16;41.74;98804.59;2077715;28;20057;-55
2023/07/12 04:40:24;;;;;;;2.53;1.92;;;;;;;29.17;42.06;98802.72;2081416;28;20044;-53
2023/07/12 04:41:26;;;;;;;3.33;1.90;;;;;;;29.19;42.14;98792.31;2077768;28;20095;-55
2023/07/12 04:42:29;;;;;;;2.05;1.80;;;;;;;29.17;42.10;98789.06;2078246;28;20041;-55
2023/07/12 04:43:32;;;;;;;2.75;1.83;;;;;;;29.17;42.05;98778.94;2080056;28;21172;-54
2023/07/12 04:44:34;;;;;;;2.03;1.60;;;;;;;29.18;42.17;98772.38;2078091;28;20071;-55
2023/07/12 04:45:35;;;;;;;2.38;1.77;;;;;;;29.17;42.22;98789.88;2068208;28;20049;-53
2023/07/12 04:46:37;;;;;;;1.98;1.40;;;;;;;29.20;42.08;98787.66;2077704;28;20045;-55
2023/07/12 04:47:39;;;;;;;2.88;2.08;;;;;;;29.20;42.19;98790.41;2078782;28;20052;-54
2023/07/12 04:48:40;;;;;;;4.88;2.03;;;;;;;29.21;42.31;98792.06;2079470;28;20041;-53
2023/07/12 04:49:43;;;;;;;2.28;1.85;;;;;;;29.22;42.27;98785.50;2078068;28;20533;-53
2023/07/12 04:50:45;;;;;;;1.98;1.48;;;;;;;29.21;42.35;98800.25;2080168;28;20059;-53
2023/07/12 04:51:46;;;;;;;3.72;1.67;;;;;;;29.22;42.49;98799.97;2079772;28;20419;-56
2023/07/12 04:52:48;;;;;;;1.80;1.58;;;;;;;29.21;42.91;98803.81;2081114;28;20059;-55
2023/07/12 04:53:49;;;;;;;1.73;1.38;;;;;;;29.23;42.59;98809.00;2078089;28;20048;-54